Time;durP1;ratioP1;P1;durP2;ratioP2;P2;SDS_P1;SDS_P2;PMS_P1;PMS_P2;Temp;Humidity;BMP_temperature;BMP_pressure;BME280_temperature;BME280_humidity;BME280_pressure;Samples;Min_cycle;Max_cycle;Signal;HPM_P1;HPM_P2
2021/09/04 00:00:32;;;;;;;6.70;3.77;;;10.90;99.90;;;;;;6274625;28;20191;-75
2021/09/04 00:03:35;;;;;;;6.03;3.90;;;10.90;99.90;;;;;;6264871;28;20187;-75
2021/09/04 00:06:37;;;;;;;5.67;4.07;;;10.90;99.90;;;;;;6271056;28;20529;-75
2021/09/04 00:09:40;;;;;;;3.90;3.30;;;10.90;99.90;;;;;;6274318;28;20207;-75
2021/09/04 00:12:43;;;;;;;4.53;3.77;;;10.90;99.90;;;;;;6274319;28;20230;-75
2021/09/04 00:15:46;;;;;;;3.90;3.23;;;10.90;99.90;;;;;;6252166;28;20677;-75
2021/09/04 00:18:49;;;;;;;6.70;4.30;;;10.90;99.90;;;;;;6274205;28;20675;-75
2021/09/04 00:21:51;;;;;;;3.40;3.10;;;10.80;99.90;;;;;;6250139;28;20228;-75
2021/09/04 00:24:53;;;;;;;5.30;3.50;;;10.80;99.90;;;;;;6251133;28;20221;-76
2021/09/04 00:27:55;;;;;;;6.50;3.73;;;10.80;99.90;;;;;;6272957;28;20225;-75
2021/09/04 00:30:58;;;;;;;3.60;3.27;;;10.80;99.90;;;;;;6272620;28;20544;-75
2021/09/04 00:34:00;;;;;;;5.23;3.73;;;10.70;99.90;;;;;;6258990;28;20671;-76
2021/09/04 00:37:04;;;;;;;4.73;3.67;;;10.70;99.90;;;;;;6266814;28;20789;-75
2021/09/04 00:40:06;;;;;;;5.07;3.63;;;10.70;99.90;;;;;;6272399;28;20211;-75
2021/09/04 00:43:09;;;;;;;4.83;3.70;;;10.70;99.90;;;;;;6255994;28;20249;-75
2021/09/04 00:46:11;;;;;;;5.60;3.80;;;10.70;99.90;;;;;;6272193;28;20245;-75
2021/09/04 00:49:14;;;;;;;8.57;3.83;;;10.70;99.90;;;;;;6272322;28;20409;-75
2021/09/04 00:52:18;;;;;;;4.03;3.63;;;10.60;99.90;;;;;;6273421;28;20210;-75
2021/09/04 00:55:22;;;;;;;3.63;3.00;;;10.60;99.90;;;;;;6270811;28;20195;-76
2021/09/04 00:58:25;;;;;;;7.27;4.00;;;10.60;99.90;;;;;;6272099;28;20197;-75
2021/09/04 01:01:27;;;;;;;3.93;3.33;;;10.60;99.90;;;;;;6272105;28;20199;-75
2021/09/04 01:04:32;;;;;;;4.90;3.60;;;10.50;99.90;;;;;;6257257;28;20663;-75
2021/09/04 01:07:37;;;;;;;5.57;3.23;;;10.50;99.90;;;;;;6262135;28;20195;-75
2021/09/04 01:10:41;;;;;;;4.80;3.60;;;10.50;99.90;;;;;;6270627;28;20200;-76
2021/09/04 01:13:43;;;;;;;5.20;3.60;;;10.50;99.90;;;;;;6271442;28;20567;-76
2021/09/04 01:16:46;;;;;;;3.93;3.20;;;10.50;99.90;;;;;;6251215;28;20210;-76
2021/09/04 01:19:48;;;;;;;3.57;3.27;;;10.40;99.90;;;;;;6271485;28;20190;-75
2021/09/04 01:22:50;;;;;;;4.90;3.87;;;10.40;99.90;;;;;;6272479;28;20244;-75
2021/09/04 01:25:54;;;;;;;4.60;3.47;;;10.40;99.90;;;;;;6271188;28;20294;-75
2021/09/04 01:28:57;;;;;;;4.67;3.83;;;10.50;99.90;;;;;;6271507;28;20195;-75
2021/09/04 01:31:59;;;;;;;3.60;3.30;;;10.40;99.90;;;;;;6270991;28;20742;-76
2021/09/04 01:35:09;;;;;;;4.30;3.50;;;10.40;99.90;;;;;;6261071;28;20195;-76
2021/09/04 01:38:12;;;;;;;4.77;3.90;;;10.40;99.90;;;;;;6271060;28;20282;-76
2021/09/04 01:41:14;;;;;;;4.23;3.07;;;10.40;99.90;;;;;;6271173;28;20636;-76
2021/09/04 01:44:16;;;;;;;4.93;3.40;;;10.30;99.90;;;;;;6271033;28;20270;-76
2021/09/04 01:47:18;;;;;;;4.30;3.30;;;10.40;99.90;;;;;;6272144;28;20203;-76
2021/09/04 01:50:21;;;;;;;4.57;3.77;;;10.40;99.90;;;;;;6254826;28;20195;-76
2021/09/04 01:53:23;;;;;;;5.30;3.50;;;10.40;99.90;;;;;;6271928;28;20297;-76
2021/09/04 01:56:26;;;;;;;6.83;3.50;;;10.40;99.90;;;;;;6270842;28;20187;-76
2021/09/04 01:59:28;;;;;;;5.43;3.90;;;10.30;99.90;;;;;;6270856;28;20191;-76
2021/09/04 02:02:31;;;;;;;3.80;3.20;;;10.30;99.90;;;;;;6271820;28;20642;-76
2021/09/04 02:05:33;;;;;;;5.47;3.87;;;10.30;99.90;;;;;;6257095;28;20195;-75
2021/09/04 02:08:36;;;;;;;3.73;3.27;;;10.20;99.90;;;;;;6270378;28;20195;-76
2021/09/04 02:11:38;;;;;;;4.97;3.83;;;10.20;99.90;;;;;;6253966;28;20552;-76
2021/09/04 02:14:40;;;;;;;4.70;3.67;;;10.20;99.90;;;;;;6262482;28;20181;-76
2021/09/04 02:17:43;;;;;;;5.57;3.33;;;10.10;99.90;;;;;;6270280;28;20184;-76
2021/09/04 02:20:45;;;;;;;3.67;3.27;;;10.10;99.90;;;;;;6270212;28;20678;-76
2021/09/04 02:23:50;;;;;;;3.77;3.20;;;10.10;99.90;;;;;;6253929;28;20230;-76
2021/09/04 02:26:53;;;;;;;5.30;3.83;;;10.10;99.90;;;;;;6271684;28;20190;-76
2021/09/04 02:29:56;;;;;;;4.73;3.07;;;10.20;99.90;;;;;;6270210;28;20188;-75
2021/09/04 02:32:58;;;;;;;5.57;3.87;;;10.20;99.90;;;;;;6263966;28;20249;-76
2021/09/04 02:36:00;;;;;;;4.73;3.50;;;10.10;99.90;;;;;;6251507;28;20363;-76
2021/09/04 02:39:04;;;;;;;4.13;3.27;;;10.10;99.90;;;;;;6271384;28;20275;-76
2021/09/04 02:42:08;;;;;;;5.37;3.63;;;10.10;99.90;;;;;;6271406;28;20187;-76
2021/09/04 02:45:11;;;;;;;4.67;3.50;;;10.10;99.90;;;;;;6270094;28;20270;-76
2021/09/04 02:48:14;;;;;;;6.17;3.37;;;10.10;99.90;;;;;;6271229;28;20268;-76
2021/09/04 02:51:17;;;;;;;4.77;3.60;;;10.10;99.90;;;;;;6271283;28;20192;-75
2021/09/04 02:54:19;;;;;;;4.47;3.67;;;10.00;99.90;;;;;;6271109;28;20589;-76
2021/09/04 02:57:22;;;;;;;5.00;3.50;;;10.00;99.90;;;;;;6271072;28;20198;-76
2021/09/04 03:00:25;;;;;;;4.90;3.10;;;10.00;99.90;;;;;;6271107;28;20184;-75
2021/09/04 03:03:30;;;;;;;3.80;3.43;;;10.00;99.90;;;;;;6269697;28;20261;-75
2021/09/04 03:06:32;;;;;;;3.43;3.10;;;9.90;99.90;;;;;;6269806;28;20200;-76
2021/09/04 03:09:35;;;;;;;4.13;3.67;;;10.00;99.90;;;;;;6271370;28;20211;-76
2021/09/04 03:12:37;;;;;;;4.67;3.53;;;9.90;99.90;;;;;;6269715;28;20273;-76
2021/09/04 03:15:40;;;;;;;5.43;4.07;;;9.90;99.90;;;;;;6253266;28;20195;-76
2021/09/04 03:18:43;;;;;;;4.00;3.60;;;9.80;99.90;;;;;;6228773;28;20665;-76
2021/09/04 03:21:45;;;;;;;4.60;3.00;;;9.80;99.90;;;;;;6251235;28;20230;-76
2021/09/04 03:24:48;;;;;;;4.10;3.47;;;9.80;99.90;;;;;;6269773;28;20189;-76
2021/09/04 03:27:50;;;;;;;4.13;3.70;;;9.80;99.90;;;;;;6269532;28;20207;-76
2021/09/04 03:30:53;;;;;;;5.10;3.70;;;9.80;99.90;;;;;;6269475;28;20734;-76
2021/09/04 03:33:56;;;;;;;5.10;3.57;;;9.80;99.90;;;;;;6262219;28;20570;-76
2021/09/04 03:36:58;;;;;;;4.10;3.50;;;9.70;99.90;;;;;;6274172;28;20194;-76
2021/09/04 03:40:01;;;;;;;4.23;3.57;;;9.70;99.90;;;;;;6251202;28;20200;-76
2021/09/04 03:43:03;;;;;;;6.30;3.77;;;9.70;99.90;;;;;;6270057;28;20203;-76
2021/09/04 03:46:07;;;;;;;4.30;3.67;;;9.70;99.90;;;;;;6273717;28;20207;-76
2021/09/04 03:49:10;;;;;;;4.30;3.50;;;9.70;99.90;;;;;;6274987;28;20265;-76
2021/09/04 03:52:12;;;;;;;4.07;3.20;;;9.60;99.90;;;;;;6262895;28;20300;-76
2021/09/04 03:55:15;;;;;;;5.93;4.13;;;9.60;99.90;;;;;;6257181;28;20281;-76
2021/09/04 03:58:18;;;;;;;5.67;3.60;;;9.60;99.90;;;;;;6274864;28;20175;-76
2021/09/04 04:01:21;;;;;;;4.00;3.60;;;9.60;99.90;;;;;;6274474;28;20309;-76
2021/09/04 04:04:24;;;;;;;3.90;3.30;;;9.60;99.90;;;;;;6259823;28;20325;-76
2021/09/04 04:07:28;;;;;;;5.50;3.90;;;9.60;99.90;;;;;;6271657;28;20585;-76
2021/09/04 04:10:30;;;;;;;5.13;3.90;;;9.60;99.90;;;;;;6246726;28;20206;-76
2021/09/04 04:13:33;;;;;;;6.27;3.90;;;9.60;99.90;;;;;;6255767;28;20217;-76
2021/09/04 04:16:37;;;;;;;5.53;3.93;;;9.60;99.90;;;;;;6262734;28;20681;-76
2021/09/04 04:19:40;;;;;;;4.53;3.63;;;9.60;99.90;;;;;;6273074;28;20187;-76
2021/09/04 04:22:43;;;;;;;4.50;3.80;;;9.60;99.90;;;;;;6256292;28;20233;-76
2021/09/04 04:25:45;;;;;;;5.57;3.60;;;9.60;99.90;;;;;;6256353;28;20205;-76
2021/09/04 04:28:48;;;;;;;4.57;3.70;;;9.60;99.90;;;;;;6274185;28;20191;-76
2021/09/04 04:31:51;;;;;;;4.57;3.67;;;9.60;99.90;;;;;;6272454;28;20693;-76
2021/09/04 04:34:54;;;;;;;4.00;3.60;;;9.60;99.90;;;;;;6252615;28;20196;-76
2021/09/04 04:37:56;;;;;;;4.03;3.63;;;9.60;99.90;;;;;;6265455;28;20187;-76
2021/09/04 04:40:59;;;;;;;5.70;3.57;;;9.60;99.90;;;;;;6271956;28;20195;-75
2021/09/04 04:44:03;;;;;;;4.07;3.43;;;9.60;99.90;;;;;;6271742;28;20553;-76
2021/09/04 04:47:07;;;;;;;4.87;3.57;;;9.50;99.90;;;;;;6271995;28;20306;-76
2021/09/04 04:50:12;;;;;;;4.70;3.70;;;9.60;99.90;;;;;;6272991;28;20190;-76
2021/09/04 04:53:14;;;;;;;4.63;3.90;;;9.60;99.90;;;;;;6255221;28;20246;-76
2021/09/04 04:56:16;;;;;;;4.90;3.90;;;9.60;99.90;;;;;;6272591;28;20187;-76
2021/09/04 04:59:19;;;;;;;4.50;3.80;;;9.60;99.90;;;;;;6271571;28;20187;-76
2021/09/04 05:02:21;;;;;;;4.57;3.63;;;9.60;99.90;;;;;;6271432;28;20557;-76
2021/09/04 05:05:24;;;;;;;3.97;3.47;;;9.60;99.90;;;;;;6266067;28;20188;-75
2021/09/04 05:08:27;;;;;;;6.03;4.30;;;9.60;99.90;;;;;;6272484;28;20188;-76
2021/09/04 05:11:30;;;;;;;5.03;3.60;;;9.60;99.90;;;;;;6271131;28;20202;-76
2021/09/04 05:14:34;;;;;;;4.70;3.90;;;9.70;99.90;;;;;;6272142;28;20292;-76
2021/09/04 05:17:36;;;;;;;4.27;3.70;;;9.70;99.90;;;;;;6272355;28;20196;-76
2021/09/04 05:20:39;;;;;;;4.63;4.00;;;9.70;99.90;;;;;;6254678;28;20207;-76
2021/09/04 05:23:42;;;;;;;4.23;3.43;;;9.80;99.90;;;;;;6272114;28;20227;-76
2021/09/04 05:26:44;;;;;;;4.83;3.90;;;9.80;99.90;;;;;;6270692;28;20184;-76
2021/09/04 05:29:47;;;;;;;5.43;4.03;;;9.80;99.90;;;;;;6271611;28;20188;-76
2021/09/04 05:32:49;;;;;;;4.03;3.63;;;9.90;99.90;;;;;;6256306;28;20208;-76
2021/09/04 05:35:51;;;;;;;3.73;3.30;;;9.90;99.90;;;;;;6258005;28;20195;-76
2021/09/04 05:38:54;;;;;;;3.90;3.30;;;9.90;99.90;;;;;;6270648;28;20554;-76
2021/09/04 05:41:56;;;;;;;4.17;3.77;;;9.90;99.90;;;;;;6271759;28;20605;-76
2021/09/04 05:44:59;;;;;;;4.53;4.10;;;10.00;99.90;;;;;;6271687;28;20225;-76
2021/09/04 05:48:02;;;;;;;5.40;3.63;;;10.00;99.90;;;;;;6248918;28;20199;-76
2021/09/04 05:51:04;;;;;;;4.30;3.70;;;10.00;99.90;;;;;;6269860;28;20639;-76
2021/09/04 05:54:07;;;;;;;5.40;3.90;;;10.10;99.90;;;;;;6271314;28;20248;-76
2021/09/04 05:57:09;;;;;;;5.83;4.50;;;10.10;99.90;;;;;;6250177;28;20191;-75
2021/09/04 06:00:12;;;;;;;4.70;4.17;;;10.20;99.90;;;;;;6275851;28;20202;-76
2021/09/04 06:03:14;;;;;;;4.47;3.70;;;10.30;99.90;;;;;;6264662;28;20208;-76
2021/09/04 06:06:17;;;;;;;6.17;4.27;;;10.30;99.90;;;;;;6252540;28;20276;-76
2021/09/04 06:09:22;;;;;;;4.60;4.20;;;10.40;99.90;;;;;;6268782;28;20562;-76
2021/09/04 06:12:24;;;;;;;5.30;4.00;;;10.50;99.90;;;;;;6267611;28;20226;-76
2021/09/04 06:15:27;;;;;;;4.57;4.13;;;10.50;99.90;;;;;;6249179;28;20279;-76
2021/09/04 06:18:29;;;;;;;4.63;3.90;;;10.60;99.90;;;;;;6260211;28;20202;-76
2021/09/04 06:21:31;;;;;;;6.23;4.47;;;10.70;99.90;;;;;;6262840;28;20188;-76
2021/09/04 06:24:33;;;;;;;6.33;4.77;;;10.70;99.90;;;;;;6251062;28;20199;-75
2021/09/04 06:27:36;;;;;;;4.67;3.60;;;10.80;99.90;;;;;;6259508;28;20196;-75
2021/09/04 06:30:38;;;;;;;5.40;4.03;;;10.80;99.90;;;;;;6269580;28;20321;-76
2021/09/04 06:33:41;;;;;;;6.40;4.43;;;10.90;99.90;;;;;;6266891;28;20218;-76
2021/09/04 06:36:43;;;;;;;5.20;4.00;;;11.00;99.90;;;;;;6252702;28;20579;-75
2021/09/04 06:39:45;;;;;;;7.50;4.27;;;11.10;99.90;;;;;;6270424;28;20713;-76
2021/09/04 06:42:47;;;;;;;6.07;5.00;;;11.10;99.90;;;;;;6245506;28;20195;-76
2021/09/04 06:45:50;;;;;;;4.83;4.33;;;11.30;99.90;;;;;;6237708;28;20193;-76
2021/09/04 06:48:52;;;;;;;5.27;4.40;;;11.40;99.90;;;;;;6272517;28;20204;-77
2021/09/04 06:51:54;;;;;;;5.83;4.83;;;11.50;99.90;;;;;;6270557;28;20219;-76
2021/09/04 06:54:57;;;;;;;5.87;4.43;;;11.50;99.90;;;;;;6270406;28;20229;-75
2021/09/04 06:57:59;;;;;;;6.63;4.77;;;11.60;99.90;;;;;;6270101;28;20195;-75
2021/09/04 07:01:01;;;;;;;6.33;4.37;;;11.70;99.90;;;;;;6252739;28;20202;-76
2021/09/04 07:04:04;;;;;;;5.87;4.67;;;11.80;99.90;;;;;;6257399;28;20190;-76
2021/09/04 07:07:06;;;;;;;5.10;4.60;;;12.00;99.90;;;;;;6269950;28;20250;-76
2021/09/04 07:10:09;;;;;;;4.80;4.30;;;12.10;99.90;;;;;;6273077;28;20208;-76
2021/09/04 07:13:11;;;;;;;5.83;4.40;;;12.20;99.90;;;;;;6273680;28;20212;-76
2021/09/04 07:16:14;;;;;;;5.47;3.97;;;12.40;99.90;;;;;;6270320;28;20180;-77
2021/09/04 07:19:16;;;;;;;5.30;4.70;;;12.60;99.90;;;;;;6274857;28;20192;-76
2021/09/04 07:22:19;;;;;;;4.30;3.90;;;12.90;99.90;;;;;;6274870;28;20235;-77
2021/09/04 07:25:21;;;;;;;5.40;4.23;;;13.10;99.90;;;;;;6256090;28;20204;-79
2021/09/04 07:28:23;;;;;;;5.50;4.63;;;13.40;99.90;;;;;;6255948;28;20205;-78
2021/09/04 07:31:26;;;;;;;4.60;3.80;;;13.70;99.90;;;;;;6273934;28;20265;-78
2021/09/04 07:34:29;;;;;;;4.87;3.83;;;14.00;99.90;;;;;;6254812;28;20559;-78
2021/09/04 07:37:32;;;;;;;5.67;3.57;;;14.40;99.90;;;;;;6286970;28;20707;-79
2021/09/04 07:40:34;;;;;;;4.43;3.80;;;14.70;99.90;;;;;;6272414;28;20198;-79
2021/09/04 07:43:37;;;;;;;5.07;4.10;;;15.10;99.90;;;;;;6259164;28;20353;-79
2021/09/04 07:46:39;;;;;;;4.10;3.70;;;15.50;99.90;;;;;;6265188;28;20210;-79
2021/09/04 07:49:41;;;;;;;3.70;3.40;;;15.80;99.90;;;;;;6258776;28;20548;-79
2021/09/04 07:52:43;;;;;;;4.40;3.37;;;16.20;99.90;;;;;;6269507;28;20227;-79
2021/09/04 07:55:46;;;;;;;4.80;3.50;;;16.60;99.90;;;;;;6264804;28;20202;-80
2021/09/04 07:58:48;;;;;;;5.27;3.33;;;17.00;99.90;;;;;;6273663;28;20199;-79
2021/09/04 08:01:50;;;;;;;3.53;3.07;;;17.40;99.90;;;;;;6256377;28;20710;-79
2021/09/04 08:04:53;;;;;;;3.00;2.80;;;17.80;99.90;;;;;;6254723;28;20247;-80
2021/09/04 08:07:55;;;;;;;2.97;2.70;;;18.30;99.90;;;;;;6279854;28;20195;-79
2021/09/04 08:10:58;;;;;;;3.60;2.60;;;18.70;99.90;;;;;;6243656;28;20196;-79
2021/09/04 08:14:04;;;;;;;5.67;3.40;;;19.20;99.90;;;;;;6256533;28;20205;-80
2021/09/04 08:17:06;;;;;;;6.47;3.47;;;19.60;99.90;;;;;;6271171;28;20328;-79
2021/09/04 08:20:10;;;;;;;3.43;2.80;;;20.00;99.90;;;;;;6268513;28;20278;-79
2021/09/04 08:23:12;;;;;;;3.47;3.13;;;20.30;99.90;;;;;;6264158;28;20228;-79
2021/09/04 08:26:15;;;;;;;3.50;3.20;;;20.60;99.90;;;;;;6271403;28;20203;-79
2021/09/04 08:29:17;;;;;;;4.67;3.07;;;20.80;99.90;;;;;;6251191;28;20576;-79
2021/09/04 08:32:19;;;;;;;3.80;3.00;;;21.20;99.90;;;;;;6263917;28;20580;-79
2021/09/04 08:35:22;;;;;;;3.17;2.87;;;21.40;99.90;;;;;;6248772;28;20590;-79
2021/09/04 08:38:25;;;;;;;4.40;3.30;;;21.70;99.90;;;;;;6255804;28;20669;-80
2021/09/04 08:41:28;;;;;;;3.20;2.90;;;21.90;99.90;;;;;;6239987;28;20622;-79
2021/09/04 08:44:30;;;;;;;3.20;2.90;;;22.20;99.90;;;;;;6250683;28;20217;-80
2021/09/04 08:47:33;;;;;;;3.23;2.93;;;22.50;99.90;;;;;;6269393;28;20356;-80
2021/09/04 08:50:36;;;;;;;3.07;2.77;;;22.80;99.80;;;;;;6250253;28;20240;-79
2021/09/04 08:53:39;;;;;;;3.00;2.70;;;23.20;98.60;;;;;;6267287;28;20262;-79
2021/09/04 08:56:42;;;;;;;2.87;2.63;;;23.50;97.40;;;;;;6269000;28;20188;-79
2021/09/04 08:59:51;;;;;;;5.63;3.00;;;23.70;96.20;;;;;;6252670;28;20210;-80
2021/09/04 09:02:54;;;;;;;4.43;3.50;;;24.00;95.90;;;;;;6272197;28;20196;-79
2021/09/04 09:06:00;;;;;;;4.80;2.70;;;24.20;93.30;;;;;;6260172;28;20203;-79
2021/09/04 09:09:22;;;;;;;3.37;2.93;;;24.20;91.20;;;;;;6266965;28;20239;-80
2021/09/04 09:12:24;;;;;;;3.50;2.47;;;24.40;92.20;;;;;;6259740;28;20207;-79
2021/09/04 09:15:29;;;;;;;3.37;2.87;;;24.70;91.50;;;;;;6272814;28;20187;-79
2021/09/04 09:18:32;;;;;;;4.83;2.93;;;24.90;87.50;;;;;;6276343;28;20184;-80
2021/09/04 09:21:41;;;;;;;3.20;2.77;;;25.00;87.70;;;;;;6286704;28;20496;-81
2021/09/04 09:24:44;;;;;;;3.80;3.40;;;25.30;87.20;;;;;;6239310;28;20181;-79
2021/09/04 09:28:02;;;;;;;4.97;3.17;;;25.30;76.10;;;;;;6261871;28;20632;-80
2021/09/04 09:31:04;;;;;;;3.50;2.83;;;25.40;78.30;;;;;;6293806;28;20226;-80
2021/09/04 09:34:12;;;;;;;3.23;2.93;;;25.50;76.10;;;;;;6263387;28;20219;-80
2021/09/04 09:37:14;;;;;;;3.35;2.75;;;25.80;77.30;;;;;;6276432;28;20278;-79
2021/09/04 09:40:24;;;;;;;4.10;3.03;;;26.00;76.10;;;;;;6284086;28;20195;-80
2021/09/04 09:43:29;;;;;;;3.45;2.70;;;26.10;73.60;;;;;;6286163;28;20271;-79
2021/09/04 09:46:47;;;;;;;3.78;3.05;;;26.00;73.50;;;;;;6268413;28;20208;-80
2021/09/04 09:49:50;;;;;;;3.97;2.55;;;26.20;73.40;;;;;;6235714;28;20196;-79
2021/09/04 09:52:53;;;;;;;3.53;3.15;;;26.40;74.30;;;;;;6274653;28;20259;-80
2021/09/04 09:55:58;;;;;;;3.58;2.70;;;26.60;74.40;;;;;;6276642;28;20215;-80
2021/09/04 09:59:00;;;;;;;4.00;3.60;;;26.80;68.50;;;;;;6211978;28;20303;-80
2021/09/04 10:02:09;;;;;;;3.08;2.78;;;26.90;65.20;;;;;;6262219;28;20199;-79
2021/09/04 10:05:14;;;;;;;3.22;2.92;;;27.20;64.00;;;;;;6225775;28;20207;-80
2021/09/04 10:08:19;;;;;;;3.35;3.05;;;27.40;64.70;;;;;;6249895;28;20647;-79
2021/09/04 10:11:22;;;;;;;2.83;2.55;;;27.70;63.40;;;;;;6236717;28;20300;-79
2021/09/04 10:14:26;;;;;;;3.85;3.38;;;28.00;64.70;;;;;;6253149;28;20211;-79
2021/09/04 10:17:28;;;;;;;3.28;2.97;;;28.40;62.10;;;;;;6256458;28;20195;-80
2021/09/04 10:20:31;;;;;;;3.03;2.75;;;28.70;59.80;;;;;;6273941;28;20179;-80
2021/09/04 10:23:33;;;;;;;3.35;2.85;;;28.70;59.50;;;;;;6260959;28;20219;-80
2021/09/04 10:26:41;;;;;;;3.08;2.70;;;28.30;61.90;;;;;;6286657;28;20225;-80
2021/09/04 10:29:45;;;;;;;3.40;2.80;;;27.50;65.40;;;;;;6269404;28;20298;-80
2021/09/04 10:33:09;;;;;;;3.83;2.55;;;27.00;68.50;;;;;;6277507;28;20315;-80
2021/09/04 10:36:11;;;;;;;3.53;3.20;;;26.60;69.70;;;;;;6270838;28;20277;-79
2021/09/04 10:39:14;;;;;;;4.82;3.15;;;26.60;70.80;;;;;;6276916;28;20537;-80
2021/09/04 10:42:31;;;;;;;3.00;2.70;;;26.50;66.40;;;;;;6261385;28;20191;-79
2021/09/04 10:45:36;;;;;;;3.35;2.90;;;26.30;65.90;;;;;;6256604;28;20239;-80
2021/09/04 10:48:38;;;;;;;3.90;2.83;;;26.60;65.20;;;;;;6281257;28;20679;-80
2021/09/04 10:51:52;;;;;;;3.50;3.20;;;27.00;64.40;;;;;;6282714;28;20536;-80
2021/09/04 10:54:58;;;;;;;3.33;2.92;;;27.50;63.60;;;;;;6284797;28;20650;-80
2021/09/04 10:58:15;;;;;;;3.85;2.70;;;27.60;61.20;;;;;;6233404;28;20169;-80
2021/09/04 11:01:38;;;;;;;4.32;2.78;;;27.40;62.60;;;;;;6232226;28;20232;-80
2021/09/04 11:04:55;;;;;;;4.50;3.20;;;27.10;60.50;;;;;;6256810;28;20208;-80
2021/09/04 11:08:06;;;;;;;3.38;3.03;;;26.90;65.10;;;;;;6277440;28;20218;-79
2021/09/04 11:11:25;;;;;;;3.58;3.22;;;27.10;62.90;;;;;;6279126;28;20571;-80
2021/09/04 11:14:28;;;;;;;2.80;2.53;;;27.70;59.20;;;;;;6260484;28;20212;-79
2021/09/04 11:17:35;;;;;;;4.25;3.50;;;28.00;56.50;;;;;;6284917;28;20199;-80
2021/09/04 11:20:50;;;;;;;4.57;3.30;;;28.30;53.30;;;;;;6239465;28;20687;-79
2021/09/04 11:23:53;;;;;;;3.70;3.25;;;28.30;54.70;;;;;;6254206;28;20227;-79
2021/09/04 11:26:59;;;;;;;3.20;2.90;;;28.10;51.10;;;;;;6267953;28;20192;-79
2021/09/04 11:30:01;;;;;;;4.03;3.60;;;28.20;51.80;;;;;;6268858;28;20200;-79
2021/09/04 11:33:23;;;;;;;3.47;3.17;;;28.70;51.20;;;;;;6267990;28;20228;-80
2021/09/04 11:36:33;;;;;;;3.65;3.30;;;29.10;52.90;;;;;;6257455;28;20176;-79
2021/09/04 11:39:37;;;;;;;3.45;3.15;;;29.40;49.80;;;;;;6259680;28;20252;-80
2021/09/04 11:42:44;;;;;;;4.20;3.38;;;29.20;48.90;;;;;;6277395;28;20249;-80
2021/09/04 11:45:46;;;;;;;4.00;3.05;;;29.00;49.60;;;;;;6256791;28;20811;-80
2021/09/04 11:48:51;;;;;;;3.35;3.03;;;29.00;49.40;;;;;;6272936;28;20199;-78
2021/09/04 11:51:57;;;;;;;3.55;2.95;;;29.00;49.20;;;;;;6271358;28;20201;-80
2021/09/04 11:55:17;;;;;;;3.20;2.90;;;29.30;48.80;;;;;;6253847;28;20288;-79
2021/09/04 11:58:19;;;;;;;3.72;2.97;;;29.60;48.30;;;;;;6271625;28;20188;-79
2021/09/04 12:01:23;;;;;;;3.60;3.10;;;30.00;48.80;;;;;;6270819;28;20183;-76
2021/09/04 12:04:27;;;;;;;3.17;2.88;;;30.40;48.40;;;;;;6246149;28;20203;-79
2021/09/04 12:07:31;;;;;;;4.72;3.15;;;30.60;47.70;;;;;;6272472;28;20639;-79
2021/09/04 12:10:39;;;;;;;3.67;3.35;;;30.80;48.90;;;;;;6272609;28;20223;-77
2021/09/04 12:13:43;;;;;;;3.47;3.17;;;30.70;47.60;;;;;;6207004;28;20223;-78
2021/09/04 12:16:46;;;;;;;4.88;3.15;;;30.50;45.80;;;;;;6283421;28;20203;-78
2021/09/04 12:19:49;;;;;;;2.88;2.67;;;30.40;47.30;;;;;;6275084;28;20195;-79
2021/09/04 12:22:59;;;;;;;3.40;3.10;;;30.50;46.50;;;;;;6233246;28;20630;-81
2021/09/04 12:26:07;;;;;;;3.58;3.28;;;30.90;47.30;;;;;;6234939;28;20208;-79
2021/09/04 12:29:11;;;;;;;3.50;3.20;;;31.30;48.50;;;;;;6247789;28;20720;-82
2021/09/04 12:32:14;;;;;;;3.63;3.10;;;31.40;46.80;;;;;;6270059;28;20229;-82
2021/09/04 12:35:17;;;;;;;5.65;3.33;;;31.30;46.20;;;;;;6246416;28;20623;-80
2021/09/04 12:38:24;;;;;;;3.58;3.28;;;31.20;45.60;;;;;;6252704;28;20268;-82
2021/09/04 12:41:32;;;;;;;3.25;2.90;;;31.20;45.10;;;;;;6262916;28;20266;-82
2021/09/04 12:44:41;;;;;;;3.28;2.97;;;31.20;46.00;;;;;;6264112;28;20196;-82
2021/09/04 12:47:49;;;;;;;3.92;3.53;;;31.20;46.50;;;;;;6264048;28;20200;-80
2021/09/04 12:51:08;;;;;;;4.50;3.30;;;31.30;45.10;;;;;;6270834;28;20329;-81
2021/09/04 12:54:12;;;;;;;3.80;3.35;;;31.60;45.10;;;;;;6254505;28;20713;-81
2021/09/04 12:57:31;;;;;;;3.95;3.13;;;31.90;44.50;;;;;;6271739;28;20199;-80
2021/09/04 13:00:35;;;;;;;4.22;3.08;;;32.20;44.80;;;;;;6271168;28;20223;-80
2021/09/04 13:03:37;;;;;;;4.45;3.38;;;32.30;43.80;;;;;;6271494;28;20195;-80
2021/09/04 13:06:40;;;;;;;3.67;3.38;;;32.10;41.00;;;;;;6273072;28;20187;-82
2021/09/04 13:09:44;;;;;;;4.22;3.13;;;32.00;42.10;;;;;;6269174;28;20664;-81
2021/09/04 13:12:50;;;;;;;3.40;3.10;;;32.10;40.80;;;;;;6263736;28;20198;-79
2021/09/04 13:15:53;;;;;;;3.78;3.38;;;32.00;41.40;;;;;;6256756;28;20337;-81
2021/09/04 13:18:55;;;;;;;3.53;3.08;;;32.30;43.30;;;;;;6252803;28;20192;-81
2021/09/04 13:21:58;;;;;;;3.35;3.05;;;32.70;43.30;;;;;;6252430;28;20227;-82
2021/09/04 13:25:00;;;;;;;3.45;3.10;;;32.90;41.90;;;;;;6277972;28;20207;-80
2021/09/04 13:28:05;;;;;;;3.50;3.20;;;33.20;40.80;;;;;;6269687;28;20202;-81
2021/09/04 13:31:07;;;;;;;6.28;2.88;;;33.60;40.80;;;;;;6270550;28;20241;-82
2021/09/04 13:34:11;;;;;;;3.17;2.88;;;34.00;39.90;;;;;;6241792;28;20541;-81
2021/09/04 13:37:14;;;;;;;3.70;3.40;;;34.50;38.80;;;;;;6262700;28;20193;-82
2021/09/04 13:40:16;;;;;;;4.15;3.63;;;34.80;37.20;;;;;;6263111;28;20231;-81
2021/09/04 13:43:19;;;;;;;3.80;3.40;;;34.40;37.00;;;;;;6246746;28;20192;-82
2021/09/04 13:46:21;;;;;;;3.67;3.38;;;34.40;38.20;;;;;;6283649;28;20313;-81
2021/09/04 13:49:24;;;;;;;3.67;3.38;;;34.70;39.80;;;;;;6237102;28;20197;-82
2021/09/04 13:52:29;;;;;;;4.55;3.53;;;35.00;38.60;;;;;;6233696;28;20215;-82
2021/09/04 13:55:32;;;;;;;3.33;2.80;;;35.10;37.80;;;;;;6259713;28;20215;-82
2021/09/04 13:58:34;;;;;;;4.00;3.10;;;35.00;36.60;;;;;;6270832;28;20551;-82
2021/09/04 14:01:38;;;;;;;3.38;3.08;;;34.70;36.10;;;;;;6267413;28;20273;-82
2021/09/04 14:04:41;;;;;;;3.13;2.83;;;34.40;36.50;;;;;;6232475;28;20200;-82
2021/09/04 14:07:43;;;;;;;3.55;3.13;;;34.20;35.90;;;;;;6269395;28;20203;-83
2021/09/04 14:10:45;;;;;;;4.05;3.33;;;34.00;35.50;;;;;;6237674;28;20680;-82
2021/09/04 14:13:48;;;;;;;4.25;2.97;;;34.10;37.10;;;;;;6262295;28;20195;-81
2021/09/04 14:16:50;;;;;;;4.43;3.15;;;33.80;38.00;;;;;;6279444;28;20208;-82
2021/09/04 14:19:53;;;;;;;4.07;3.67;;;33.10;39.80;;;;;;6269391;28;20191;-81
2021/09/04 14:22:55;;;;;;;4.38;3.63;;;32.00;39.80;;;;;;6253231;28;20253;-82
2021/09/04 14:25:58;;;;;;;4.05;3.50;;;30.90;40.60;;;;;;6270215;28;20199;-81
2021/09/04 14:29:02;;;;;;;4.18;3.65;;;30.00;42.60;;;;;;6254244;28;20223;-80
2021/09/04 14:32:04;;;;;;;3.22;2.92;;;29.30;43.60;;;;;;6270341;28;20215;-81
2021/09/04 14:35:07;;;;;;;3.75;3.33;;;28.80;45.40;;;;;;6245581;28;20215;-81
2021/09/04 14:38:10;;;;;;;5.13;3.42;;;28.60;43.40;;;;;;6268496;28;20206;-81
2021/09/04 14:41:12;;;;;;;3.78;3.42;;;28.60;46.10;;;;;;6267970;28;20202;-81
2021/09/04 14:44:14;;;;;;;3.90;3.50;;;29.50;44.10;;;;;;6252988;28;20266;-81
2021/09/04 14:47:16;;;;;;;4.13;3.35;;;30.40;45.40;;;;;;6259908;28;20198;-81
2021/09/04 14:50:20;;;;;;;5.22;2.80;;;31.70;41.70;;;;;;6260660;28;20204;-80
2021/09/04 14:53:22;;;;;;;3.00;2.70;;;32.90;40.30;;;;;;6251159;28;20654;-81
2021/09/04 14:56:24;;;;;;;3.88;3.30;;;33.70;41.10;;;;;;6270941;28;20209;-81
2021/09/04 14:59:27;;;;;;;3.33;3.03;;;34.20;38.70;;;;;;6270644;28;20215;-81
2021/09/04 15:02:29;;;;;;;4.93;3.40;;;34.50;40.40;;;;;;6270507;28;20207;-80
2021/09/04 15:05:31;;;;;;;4.45;2.97;;;34.80;41.10;;;;;;6265956;28;20704;-81
2021/09/04 15:08:34;;;;;;;3.53;2.80;;;35.10;41.10;;;;;;6269422;28;20211;-81
2021/09/04 15:11:37;;;;;;;5.50;3.03;;;35.20;41.00;;;;;;6269066;28;20623;-81
2021/09/04 15:14:39;;;;;;;3.58;3.28;;;35.30;41.10;;;;;;6261228;28;20212;-81
2021/09/04 15:17:41;;;;;;;4.55;3.55;;;34.80;41.50;;;;;;6234763;28;20195;-81
2021/09/04 15:20:44;;;;;;;8.73;3.50;;;33.60;43.10;;;;;;6263929;28;20188;-81
2021/09/04 15:23:46;;;;;;;8.00;3.35;;;32.10;44.60;;;;;;6261604;28;20264;-80
2021/09/04 15:26:48;;;;;;;7.75;3.50;;;30.50;47.00;;;;;;6268358;28;20502;-80
2021/09/04 15:29:51;;;;;;;5.28;3.25;;;29.20;49.10;;;;;;6272734;28;20206;-80
2021/09/04 15:32:53;;;;;;;7.95;3.60;;;28.20;51.10;;;;;;6250594;28;20220;-81
2021/09/04 15:35:55;;;;;;;4.90;3.30;;;27.40;52.80;;;;;;6265596;28;20214;-81
2021/09/04 15:38:58;;;;;;;6.43;3.33;;;26.50;54.10;;;;;;6274636;28;20210;-81
2021/09/04 15:42:00;;;;;;;4.65;3.42;;;25.60;55.50;;;;;;6271188;28;20191;-80
2021/09/04 15:45:03;;;;;;;4.15;3.67;;;24.90;56.90;;;;;;6273092;28;20566;-80
2021/09/04 15:48:06;;;;;;;3.92;3.15;;;24.50;57.90;;;;;;6272963;28;20192;-81
2021/09/04 15:51:08;;;;;;;5.18;3.53;;;24.00;59.40;;;;;;6274216;28;20625;-80
2021/09/04 15:54:10;;;;;;;3.60;3.08;;;23.50;59.70;;;;;;6272801;28;20206;-81
2021/09/04 15:57:13;;;;;;;4.20;2.73;;;23.30;61.40;;;;;;6273073;28;20195;-80